Time;durP1;ratioP1;P1;durP2;ratioP2;P2;SDS_P1;SDS_P2;PMS_P1;PMS_P2;Temp;Humidity;BMP_temperature;BMP_pressure;BME280_temperature;BME280_humidity;BME280_pressure;Samples;Min_cycle;Max_cycle;Signal;HPM_P1;HPM_P2
2022/11/17 00:00:29;;;;;;;6.88;1.58;;;;;;;;;;5029674;28;20033;-73
2022/11/17 00:02:58;;;;;;;4.70;1.70;;;;;;;;;;5029763;28;20053;-73
2022/11/17 00:05:32;;;;;;;4.97;1.63;;;;;;;;;;5029328;28;20078;-73
2022/11/17 00:08:16;;;;;;;3.85;1.30;;;;;;;;;;5029458;28;20397;-73
2022/11/17 00:10:51;;;;;;;5.82;1.55;;;;;;;;;;5029710;28;20034;-73
2022/11/17 00:16:13;;;;;;;4.28;1.30;;;;;;;;;;5029985;28;20187;-73
2022/11/17 00:21:36;;;;;;;4.80;1.50;;;;;;;;;;5029617;28;20071;-74
2022/11/17 00:24:24;;;;;;;5.22;1.58;;;;;;;;;;5029309;28;20021;-73
2022/11/17 00:27:02;;;;;;;4.88;1.70;;;;;;;;;;5027474;28;20042;-73
2022/11/17 00:29:39;;;;;;;4.78;1.40;;;;;;;;;;5029060;28;20029;-73
2022/11/17 00:38:19;;;;;;;6.47;1.50;;;;;;;;;;5029309;28;20560;-72
2022/11/17 00:40:51;;;;;;;3.10;1.45;;;;;;;;;;5029067;28;20040;-72
2022/11/17 00:43:28;;;;;;;6.50;1.60;;;;;;;;;;5029205;28;20103;-73
2022/11/17 00:46:00;;;;;;;6.95;1.63;;;;;;;;;;5033055;28;20030;-72
2022/11/17 00:48:48;;;;;;;6.10;1.70;;;;;;;;;;5033231;28;20034;-73
2022/11/17 00:51:25;;;;;;;4.32;1.55;;;;;;;;;;5033029;28;20030;-72
2022/11/17 00:54:01;;;;;;;5.53;1.65;;;;;;;;;;5033183;28;20029;-73
2022/11/17 00:56:33;;;;;;;5.88;1.90;;;;;;;;;;5033135;28;20112;-73
2022/11/17 00:59:00;;;;;;;4.70;1.95;;;;;;;;;;5032829;28;20105;-73
2022/11/17 01:01:48;;;;;;;4.25;2.03;;;;;;;;;;5032850;28;20029;-73
2022/11/17 01:04:23;;;;;;;5.75;1.95;;;;;;;;;;5033090;28;20041;-73
2022/11/17 01:06:51;;;;;;;8.05;2.00;;;;;;;;;;5032875;28;20045;-72
2022/11/17 01:09:27;;;;;;;3.20;1.52;;;;;;;;;;5032768;28;20113;-72
2022/11/17 01:12:01;;;;;;;5.32;1.90;;;;;;;;;;5032493;28;20030;-72
2022/11/17 01:14:31;;;;;;;7.40;2.22;;;;;;;;;;5032481;28;20101;-72
2022/11/17 01:17:07;;;;;;;4.03;2.15;;;;;;;;;;5033084;28;20034;-72
2022/11/17 01:19:41;;;;;;;5.85;2.20;;;;;;;;;;5032580;28;20029;-74
2022/11/17 01:22:07;;;;;;;6.22;2.42;;;;;;;;;;5032821;28;20535;-72
2022/11/17 01:25:01;;;;;;;9.55;2.40;;;;;;;;;;5032565;28;20029;-72
2022/11/17 01:27:36;;;;;;;4.70;2.03;;;;;;;;;;5013809;28;20115;-72
2022/11/17 01:30:23;;;;;;;;;;;;;;;;;;;;;
2022/11/17 01:33:05;;;;;;;;;;;;;;;;;;;;;
2022/11/17 01:35:42;;;;;;;6.95;2.60;;;;;;;;;;5032443;28;20017;-72
2022/11/17 01:38:19;;;;;;;8.13;2.42;;;;;;;;;;5010866;28;20196;-72
2022/11/17 01:41:02;;;;;;;6.13;2.20;;;;;;;;;;5029656;28;20030;-72
2022/11/17 01:43:50;;;;;;;9.75;2.40;;;;;;;;;;5013967;28;20041;-72
2022/11/17 01:49:45;;;;;;;5.43;2.47;;;;;;;;;;5031803;28;20125;-72
2022/11/17 01:52:19;;;;;;;6.88;2.17;;;;;;;;;;5031908;28;20025;-72
2022/11/17 01:55:16;;;;;;;5.50;2.30;;;;;;;;;;5031706;28;20100;-71
2022/11/17 01:58:05;;;;;;;6.80;2.22;;;;;;;;;;5031793;28;20049;-72
2022/11/17 02:00:36;;;;;;;5.57;2.00;;;;;;;;;;5031869;28;20441;-72
2022/11/17 02:03:21;;;;;;;4.35;1.73;;;;;;;;;;5031860;28;20079;-72
2022/11/17 02:05:55;;;;;;;4.78;2.15;;;;;;;;;;5031636;28;20057;-72
2022/11/17 02:08:34;;;;;;;4.88;2.05;;;;;;;;;;5012291;28;20060;-72
2022/11/17 02:11:25;;;;;;;5.95;1.98;;;;;;;;;;5031417;28;20052;-72
2022/11/17 02:14:06;;;;;;;4.53;1.50;;;;;;;;;;5031436;28;20025;-71
2022/11/17 02:16:40;;;;;;;6.60;1.60;;;;;;;;;;5031662;28;20432;-72
2022/11/17 02:19:18;;;;;;;4.90;1.67;;;;;;;;;;5031623;28;20033;-72
2022/11/17 02:22:45;;;;;;;3.05;1.40;;;;;;;;;;5031180;28;20087;-72
2022/11/17 02:25:54;;;;;;;3.95;1.30;;;;;;;;;;4950922;29;20116;-72
2022/11/17 02:28:52;;;;;;;4.13;1.60;;;;;;;;;;4950497;29;20110;-72
2022/11/17 02:31:31;;;;;;;3.58;1.60;;;;;;;;;;5025371;28;20074;-72
2022/11/17 02:34:18;;;;;;;3.70;1.30;;;;;;;;;;5031328;28;20026;-73
2022/11/17 02:37:42;;;;;;;2.42;1.30;;;;;;;;;;5031410;28;20025;-72
2022/11/17 02:40:46;;;;;;;4.47;1.60;;;;;;;;;;5030473;28;20397;-72
2022/11/17 02:46:35;;;;;;;4.10;1.40;;;;;;;;;;5031248;28;20036;-72
2022/11/17 02:49:17;;;;;;;4.90;1.42;;;;;;;;;;5031047;28;20112;-72
2022/11/17 02:51:46;;;;;;;7.05;1.60;;;;;;;;;;5030988;28;20030;-73
2022/11/17 02:54:41;;;;;;;4.30;1.70;;;;;;;;;;5030999;28;20140;-73
2022/11/17 02:57:44;;;;;;;5.65;1.73;;;;;;;;;;5026644;28;20048;-73
2022/11/17 03:00:20;;;;;;;4.95;1.60;;;;;;;;;;5011435;28;20038;-73
2022/11/17 03:03:09;;;;;;;4.47;1.20;;;;;;;;;;5012557;28;20056;-73
2022/11/17 03:05:50;;;;;;;7.32;1.80;;;;;;;;;;5030410;28;20054;-73
2022/11/17 03:08:36;;;;;;;;;;;;;;;;;;5013197;28;20120;-74
2022/11/17 03:11:32;;;;;;;5.03;1.80;;;;;;;;;;5030510;28;19913;-73
2022/11/17 03:14:36;;;;;;;5.10;1.50;;;;;;;;;;5030174;28;20025;-73
2022/11/17 03:17:40;;;;;;;6.20;1.67;;;;;;;;;;5030415;28;20025;-74
2022/11/17 03:20:33;;;;;;;4.53;1.48;;;;;;;;;;5030824;28;20539;-73
2022/11/17 03:23:59;;;;;;;4.50;1.70;;;;;;;;;;5029762;28;20048;-72
2022/11/17 03:26:39;;;;;;;4.90;1.67;;;;;;;;;;5012344;28;20029;-73
2022/11/17 03:29:11;;;;;;;5.90;1.87;;;;;;;;;;5029919;28;20040;-74
2022/11/17 03:35:04;;;;;;;5.32;1.58;;;;;;;;;;5029227;28;20038;-73
2022/11/17 03:37:43;;;;;;;4.95;1.90;;;;;;;;;;5015002;28;20032;-73
2022/11/17 03:40:23;;;;;;;4.25;1.60;;;;;;;;;;5030402;28;20056;-72
2022/11/17 03:42:58;;;;;;;4.43;1.50;;;;;;;;;;5029512;28;20060;-73
2022/11/17 03:45:51;;;;;;;4.22;1.70;;;;;;;;;;4996905;28;20034;-73
2022/11/17 03:49:09;;;;;;;3.28;1.55;;;;;;;;;;5001990;28;20045;-72
2022/11/17 03:51:43;;;;;;;4.75;1.75;;;;;;;;;;4968072;28;20130;-73
2022/11/17 03:54:29;;;;;;;;;;;;;;;;;;;;;
2022/11/17 03:57:47;;;;;;;4.10;1.50;;;;;;;;;;5029781;28;20025;-74
2022/11/17 04:00:26;;;;;;;6.35;1.63;;;;;;;;;;5028868;28;20050;-74
2022/11/17 04:02:58;;;;;;;5.18;1.55;;;;;;;;;;5029400;28;20025;-74
2022/11/17 04:05:30;;;;;;;4.35;1.70;;;;;;;;;;5029754;28;20041;-73
2022/11/17 04:16:52;;;;;;;8.57;1.90;;;;;;;;;;5029757;28;20538;-73
2022/11/17 04:19:51;;;;;;;8.50;1.90;;;;;;;;;;5028727;28;20034;-72
2022/11/17 04:22:20;;;;;;;6.45;1.80;;;;;;;;;;5029382;28;20033;-72
2022/11/17 04:28:35;;;;;;;8.43;1.95;;;;;;;;;;5029346;28;20029;-72
2022/11/17 04:30:49;;;;;;;12.15;1.80;;;;;;;;;;5029420;28;20398;-73
2022/11/17 04:33:23;;;;;;;6.07;1.45;;;;;;;;;;5028947;28;20034;-73
2022/11/17 04:36:19;;;;;;;5.15;1.55;;;;;;;;;;5029544;28;20444;-72
2022/11/17 04:39:03;;;;;;;9.32;1.90;;;;;;;;;;5029234;28;20424;-73
2022/11/17 04:41:53;;;;;;;9.00;1.63;;;;;;;;;;5029310;28;20026;-72
2022/11/17 04:44:40;;;;;;;11.70;2.13;;;;;;;;;;5028935;28;20026;-73
2022/11/17 04:47:28;;;;;;;5.65;1.52;;;;;;;;;;5029017;28;20087;-72
2022/11/17 04:50:09;;;;;;;7.07;1.60;;;;;;;;;;5011372;28;20048;-73
2022/11/17 04:53:00;;;;;;;5.60;1.80;;;;;;;;;;5029146;28;20033;-72
2022/11/17 04:55:28;;;;;;;9.38;1.80;;;;;;;;;;5029306;28;20029;-72
2022/11/17 04:58:03;;;;;;;10.68;1.75;;;;;;;;;;5028667;28;20030;-72
2022/11/17 05:00:57;;;;;;;7.18;1.77;;;;;;;;;;5009978;28;20041;-73
2022/11/17 05:04:12;;;;;;;10.23;2.00;;;;;;;;;;5028382;28;20037;-72
2022/11/17 05:07:15;;;;;;;9.95;1.98;;;;;;;;;;4986786;28;20049;-72
2022/11/17 05:09:53;;;;;;;6.38;1.58;;;;;;;;;;5029068;28;20115;-72
2022/11/17 05:17:03;;;;;;;7.55;1.80;;;;;;;;;;5029013;28;20095;-72
2022/11/17 05:18:24;;;;;;;8.05;1.60;;;;;;;;;;5026234;28;20045;-72
2022/11/17 05:21:00;;;;;;;13.18;1.90;;;;;;;;;;5029016;28;20029;-73
2022/11/17 05:23:56;;;;;;;6.22;1.80;;;;;;;;;;5028517;28;20080;-72
2022/11/17 05:26:52;;;;;;;9.07;1.77;;;;;;;;;;5029001;28;20088;-72
2022/11/17 05:29:27;;;;;;;8.98;1.80;;;;;;;;;;5023550;28;20065;-72
2022/11/17 05:35:26;;;;;;;7.80;1.75;;;;;;;;;;5032440;28;20026;-73
2022/11/17 05:38:06;;;;;;;7.97;1.73;;;;;;;;;;5022044;28;20091;-73
2022/11/17 05:40:39;;;;;;;6.40;1.90;;;;;;;;;;5032568;28;20247;-73
2022/11/17 05:43:23;;;;;;;11.73;2.03;;;;;;;;;;5032008;28;20021;-73
2022/11/17 05:46:06;;;;;;;8.75;2.00;;;;;;;;;;5032345;28;20026;-73
2022/11/17 05:48:48;;;;;;;9.93;2.38;;;;;;;;;;5031426;28;20034;-73
2022/11/17 05:51:22;;;;;;;9.18;1.83;;;;;;;;;;5013849;28;20037;-73
2022/11/17 05:53:56;;;;;;;7.80;1.98;;;;;;;;;;5031897;28;20094;-73
2022/11/17 05:56:37;;;;;;;9.00;2.03;;;;;;;;;;5032186;28;20029;-73
2022/11/17 05:59:40;;;;;;;11.52;2.17;;;;;;;;;;5031689;28;20505;-72
2022/11/17 06:02:37;;;;;;;11.50;1.83;;;;;;;;;;5032283;28;20029;-72
2022/11/17 06:05:04;;;;;;;8.55;1.77;;;;;;;;;;5031770;28;20629;-72
2022/11/17 06:08:00;;;;;;;10.43;1.92;;;;;;;;;;5031671;28;20091;-73
2022/11/17 06:10:47;;;;;;;11.98;1.88;;;;;;;;;;5031854;28;20557;-72
2022/11/17 06:13:25;;;;;;;;;;;;;;;;;;;;;
2022/11/17 06:16:10;;;;;;;9.95;1.85;;;;;;;;;;5031923;28;20096;-73
2022/11/17 06:19:11;;;;;;;11.32;2.20;;;;;;;;;;5031494;28;20025;-73
2022/11/17 06:21:46;;;;;;;11.13;2.20;;;;;;;;;;5014713;28;20033;-73
2022/11/17 06:24:23;;;;;;;9.02;2.15;;;;;;;;;;5031031;28;20030;-74
2022/11/17 06:26:55;;;;;;;14.02;2.70;;;;;;;;;;5031342;28;20029;-74
2022/11/17 06:29:45;;;;;;;13.18;3.20;;;;;;;;;;5030687;28;20032;-74
2022/11/17 06:32:13;;;;;;;11.33;2.53;;;;;;;;;;5031429;28;20030;-74
2022/11/17 06:34:58;;;;;;;16.58;2.63;;;;;;;;;;5031011;28;20032;-73
2022/11/17 06:37:51;;;;;;;13.75;2.95;;;;;;;;;;5031502;28;20029;-73
2022/11/17 06:40:27;;;;;;;15.40;3.20;;;;;;;;;;4995557;28;20120;-73
2022/11/17 06:43:08;;;;;;;12.10;2.55;;;;;;;;;;5030055;28;20033;-73
2022/11/17 06:45:38;;;;;;;14.85;3.03;;;;;;;;;;5030985;28;20056;-73
2022/11/17 06:48:13;;;;;;;19.00;3.20;;;;;;;;;;5030460;28;20045;-72
2022/11/17 06:51:05;;;;;;;14.75;2.75;;;;;;;;;;5031265;28;20034;-73
2022/11/17 06:54:25;;;;;;;14.95;2.30;;;;;;;;;;5013094;28;20029;-73
2022/11/17 06:57:00;;;;;;;18.48;2.30;;;;;;;;;;5031124;28;20041;-73
2022/11/17 06:59:39;;;;;;;15.00;2.30;;;;;;;;;;5030802;28;20144;-72
2022/11/17 07:05:27;;;;;;;13.13;2.33;;;;;;;;;;5016139;28;20049;-72
2022/11/17 07:08:05;;;;;;;12.05;2.25;;;;;;;;;;5030772;28;20505;-73
2022/11/17 07:10:55;;;;;;;15.75;2.47;;;;;;;;;;5030585;28;20456;-72
2022/11/17 07:13:30;;;;;;;9.68;2.30;;;;;;;;;;5029704;28;20030;-72
2022/11/17 07:16:22;;;;;;;19.95;2.50;;;;;;;;;;5030374;28;20497;-73
2022/11/17 07:19:08;;;;;;;14.88;2.42;;;;;;;;;;5030333;28;20386;-72
2022/11/17 07:22:00;;;;;;;14.57;2.33;;;;;;;;;;5030227;28;20044;-72
2022/11/17 07:25:16;;;;;;;12.70;2.38;;;;;;;;;;5029942;28;20025;-73
2022/11/17 07:27:54;;;;;;;18.80;2.70;;;;;;;;;;5005228;28;20080;-72
2022/11/17 07:30:58;;;;;;;11.52;2.75;;;;;;;;;;5011160;28;20046;-73
2022/11/17 07:33:42;;;;;;;11.93;2.78;;;;;;;;;;5030213;28;20048;-73
2022/11/17 07:36:18;;;;;;;20.63;3.10;;;;;;;;;;5030091;28;20033;-72
2022/11/17 07:39:08;;;;;;;;;;;;;;;;;;;;;
2022/11/17 07:41:48;;;;;;;15.57;2.78;;;;;;;;;;5018272;28;20037;-72
2022/11/17 07:44:42;;;;;;;;;;;;;;;;;;;;;
2022/11/17 07:47:34;;;;;;;13.60;2.60;;;;;;;;;;5030238;28;20037;-73
2022/11/17 07:50:09;;;;;;;13.25;2.50;;;;;;;;;;5029950;28;20512;-73
2022/11/17 07:53:09;;;;;;;16.30;2.80;;;;;;;;;;5029833;28;20030;-73
2022/11/17 07:55:56;;;;;;;11.80;2.30;;;;;;;;;;4998014;28;20037;-73
2022/11/17 07:58:34;;;;;;;11.05;2.40;;;;;;;;;;5028832;28;20116;-72
2022/11/17 08:05:01;;;;;;;13.73;2.35;;;;;;;;;;5018575;28;20042;-73
2022/11/17 08:07:46;;;;;;;13.85;3.10;;;;;;;;;;5020857;28;20048;-73
2022/11/17 08:10:24;;;;;;;14.02;2.70;;;;;;;;;;5011346;28;20033;-73
2022/11/17 08:13:24;;;;;;;17.35;2.90;;;;;;;;;;5029475;28;20029;-73
2022/11/17 08:15:58;;;;;;;14.90;2.50;;;;;;;;;;5029430;28;20030;-73
2022/11/17 08:21:38;;;;;;;19.63;3.08;;;;;;;;;;5029460;28;20187;-74
2022/11/17 08:24:19;;;;;;;20.48;3.78;;;;;;;;;;5029205;28;20029;-74
2022/11/17 08:26:57;;;;;;;19.27;3.10;;;;;;;;;;5028631;28;20042;-72
2022/11/17 08:30:03;;;;;;;21.98;3.55;;;;;;;;;;5028951;28;20045;-73
2022/11/17 08:32:48;;;;;;;21.70;3.13;;;;;;;;;;4968004;28;20035;-73
2022/11/17 08:35:32;;;;;;;16.33;3.17;;;;;;;;;;5025002;28;20080;-73
2022/11/17 08:38:29;;;;;;;15.82;3.03;;;;;;;;;;5029168;28;20037;-74
2022/11/17 08:41:32;;;;;;;21.55;3.30;;;;;;;;;;5029187;28;20053;-73
2022/11/17 08:44:11;;;;;;;20.38;3.38;;;;;;;;;;5028865;28;20022;-74
2022/11/17 08:47:16;;;;;;;;;;;;;;;;;;;;;
2022/11/17 08:50:00;;;;;;;18.35;3.63;;;;;;;;;;5027174;28;20048;-73
2022/11/17 08:52:39;;;;;;;20.95;3.25;;;;;;;;;;5029546;28;20108;-73
2022/11/17 08:55:16;;;;;;;21.73;3.55;;;;;;;;;;5028813;28;20026;-72
2022/11/17 08:57:59;;;;;;;20.55;3.35;;;;;;;;;;5028948;28;20104;-73
2022/11/17 09:00:51;;;;;;;26.27;3.90;;;;;;;;;;5028916;28;20103;-74
2022/11/17 09:03:32;;;;;;;16.40;3.13;;;;;;;;;;5029183;28;20048;-73
2022/11/17 09:06:16;;;;;;;19.92;3.42;;;;;;;;;;5031494;28;20596;-74
2022/11/17 09:09:17;;;;;;;20.30;3.10;;;;;;;;;;5033062;28;20033;-73
2022/11/17 09:11:53;;;;;;;22.27;3.28;;;;;;;;;;5007146;28;20073;-73
2022/11/17 09:14:35;;;;;;;22.50;3.90;;;;;;;;;;5032759;28;20029;-73
2022/11/17 09:17:25;;;;;;;19.20;3.17;;;;;;;;;;5032641;28;20030;-74
2022/11/17 09:20:13;;;;;;;;;;;;;;;;;;;;;
2022/11/17 09:23:14;;;;;;;;;;;;;;;;;;;;;
2022/11/17 09:29:31;;;;;;;19.93;3.23;;;;;;;;;;5032272;28;20425;-73
2022/11/17 09:32:32;;;;;;;15.00;2.92;;;;;;;;;;5032475;28;20022;-74
2022/11/17 09:35:09;;;;;;;25.15;4.07;;;;;;;;;;5031452;28;20040;-74
2022/11/17 09:37:38;;;;;;;20.27;3.75;;;;;;;;;;5032499;28;20075;-74
2022/11/17 09:40:57;;;;;;;24.73;3.78;;;;;;;;;;5032439;28;20021;-73
2022/11/17 09:47:22;;;;;;;24.92;3.28;;;;;;;;;;4987550;28;20082;-74
2022/11/17 09:50:03;;;;;;;19.88;3.28;;;;;;;;;;5014474;28;20040;-73
2022/11/17 09:52:47;;;;;;;18.55;3.78;;;;;;;;;;5032450;28;20025;-74
2022/11/17 09:55:13;;;;;;;23.42;3.30;;;;;;;;;;5031922;28;20025;-73
2022/11/17 09:57:45;;;;;;;22.38;3.40;;;;;;;;;;5031655;28;20029;-73
2022/11/17 10:00:14;;;;;;;25.25;3.80;;;;;;;;;;5031932;28;20030;-73
2022/11/17 10:02:44;;;;;;;23.63;3.50;;;;;;;;;;5014235;28;20029;-74
2022/11/17 10:05:39;;;;;;;23.63;3.80;;;;;;;;;;5031614;28;20509;-73
2022/11/17 10:08:07;;;;;;;23.00;3.65;;;;;;;;;;5027766;28;20470;-74
2022/11/17 10:10:38;;;;;;;24.90;3.65;;;;;;;;;;5031566;28;20065;-74
2022/11/17 10:13:08;;;;;;;22.70;3.78;;;;;;;;;;5031634;28;20687;-73
2022/11/17 10:15:46;;;;;;;18.90;3.47;;;;;;;;;;5031515;28;20025;-74
2022/11/17 10:18:14;;;;;;;27.90;3.80;;;;;;;;;;5031876;28;20033;-73
2022/11/17 10:20:41;;;;;;;23.25;3.42;;;;;;;;;;5031298;28;20053;-73
2022/11/17 10:23:12;;;;;;;19.88;3.55;;;;;;;;;;5031567;28;20026;-73
2022/11/17 10:25:42;;;;;;;20.90;3.78;;;;;;;;;;5031104;28;20025;-73
2022/11/17 10:28:26;;;;;;;22.83;3.38;;;;;;;;;;5031271;28;20021;-73
2022/11/17 10:30:54;;;;;;;23.90;3.70;;;;;;;;;;5031326;28;20045;-73
2022/11/17 10:33:49;;;;;;;19.85;3.10;;;;;;;;;;5031466;28;20025;-73
2022/11/17 10:36:21;;;;;;;23.90;3.35;;;;;;;;;;5030601;28;20026;-73
2022/11/17 10:38:50;;;;;;;19.20;3.42;;;;;;;;;;5030768;28;20025;-72
2022/11/17 10:41:20;;;;;;;21.67;3.70;;;;;;;;;;5030691;28;20070;-72
2022/11/17 10:44:21;;;;;;;24.07;3.43;;;;;;;;;;5030781;28;20559;-72
2022/11/17 10:46:56;;;;;;;20.70;3.35;;;;;;;;;;5013192;28;20034;-75
2022/11/17 10:49:25;;;;;;;19.77;3.90;;;;;;;;;;5030925;28;20057;-73
2022/11/17 10:52:10;;;;;;;22.42;3.60;;;;;;;;;;5030906;28;20033;-74
2022/11/17 10:54:35;;;;;;;24.13;4.25;;;;;;;;;;5030880;28;20676;-73
2022/11/17 10:57:06;;;;;;;24.95;3.58;;;;;;;;;;5030190;28;20161;-73
2022/11/17 10:59:43;;;;;;;17.55;3.65;;;;;;;;;;5030775;28;20445;-73
2022/11/17 11:02:28;;;;;;;22.48;3.58;;;;;;;;;;5030606;28;20032;-73
2022/11/17 11:05:04;;;;;;;26.35;4.07;;;;;;;;;;5030850;28;20030;-74
2022/11/17 11:07:30;;;;;;;23.20;3.50;;;;;;;;;;5030586;28;20033;-73
2022/11/17 11:10:05;;;;;;;24.02;4.28;;;;;;;;;;5030756;28;20041;-74
2022/11/17 11:12:39;;;;;;;25.40;4.10;;;;;;;;;;5029937;28;20036;-74
2022/11/17 11:15:12;;;;;;;24.67;3.88;;;;;;;;;;5030784;28;20132;-74
2022/11/17 11:17:37;;;;;;;18.83;2.95;;;;;;;;;;5030318;28;20024;-73
2022/11/17 11:20:03;;;;;;;31.33;3.83;;;;;;;;;;5030618;28;20037;-73
2022/11/17 11:22:55;;;;;;;20.90;3.92;;;;;;;;;;5030342;28;20037;-73
2022/11/17 11:25:45;;;;;;;17.85;3.47;;;;;;;;;;5012489;28;20059;-73
2022/11/17 11:28:29;;;;;;;20.80;3.58;;;;;;;;;;5029522;28;20071;-73
2022/11/17 11:31:30;;;;;;;23.42;4.20;;;;;;;;;;5012496;28;20032;-73
2022/11/17 11:34:33;;;;;;;25.70;3.63;;;;;;;;;;5030267;28;20041;-71
2022/11/17 11:37:09;;;;;;;24.23;4.03;;;;;;;;;;5030218;28;20036;-73
2022/11/17 11:40:08;;;;;;;23.67;4.15;;;;;;;;;;5030117;28;20605;-74
2022/11/17 11:42:45;;;;;;;20.63;3.45;;;;;;;;;;5029466;28;20033;-74
2022/11/17 11:45:48;;;;;;;26.77;3.65;;;;;;;;;;5030226;28;20077;-73
2022/11/17 11:48:16;;;;;;;22.27;3.58;;;;;;;;;;5011819;28;20120;-74
2022/11/17 11:50:41;;;;;;;27.23;3.75;;;;;;;;;;5030221;28;20568;-74
2022/11/17 11:53:42;;;;;;;19.30;3.50;;;;;;;;;;5029989;28;20108;-73
2022/11/17 11:56:07;;;;;;;23.20;3.70;;;;;;;;;;5029823;28;20652;-74
2022/11/17 11:58:35;;;;;;;27.02;4.22;;;;;;;;;;5029178;28;20036;-74
2022/11/17 12:01:05;;;;;;;22.27;3.72;;;;;;;;;;5029778;28;20036;-74
2022/11/17 12:03:55;;;;;;;23.23;3.30;;;;;;;;;;5011889;28;20030;-74
2022/11/17 12:06:39;;;;;;;22.25;3.63;;;;;;;;;;5029440;28;20052;-74
2022/11/17 12:09:25;;;;;;;23.23;3.65;;;;;;;;;;5029584;28;20073;-74
2022/11/17 12:12:01;;;;;;;21.80;3.40;;;;;;;;;;5029655;28;20550;-74
2022/11/17 12:14:35;;;;;;;24.05;3.67;;;;;;;;;;5029835;28;20056;-74
2022/11/17 12:17:03;;;;;;;27.58;4.07;;;;;;;;;;5029300;28;20040;-74
2022/11/17 12:20:08;;;;;;;24.55;3.88;;;;;;;;;;5029521;28;20033;-74
2022/11/17 12:22:54;;;;;;;25.80;3.92;;;;;;;;;;4981441;28;20083;-74
2022/11/17 12:25:30;;;;;;;20.92;3.35;;;;;;;;;;5011633;28;20029;-73
2022/11/17 12:27:55;;;;;;;23.88;3.47;;;;;;;;;;5028726;28;20026;-73
2022/11/17 12:30:33;;;;;;;24.27;4.80;;;;;;;;;;5029452;28;20036;-74
2022/11/17 12:33:00;;;;;;;19.95;3.42;;;;;;;;;;5029360;28;20033;-74
2022/11/17 12:35:31;;;;;;;25.00;3.85;;;;;;;;;;5029437;28;20025;-74
2022/11/17 12:38:11;;;;;;;;;;;;;;;;;;5029397;28;20026;-74
2022/11/17 12:40:36;;;;;;;18.80;3.42;;;;;;;;;;5010859;28;19955;-73
2022/11/17 12:43:14;;;;;;;17.92;3.47;;;;;;;;;;5010877;28;20076;-73
2022/11/17 12:45:52;;;;;;;18.70;3.50;;;;;;;;;;5011613;28;20428;-73
2022/11/17 12:48:24;;;;;;;22.02;3.30;;;;;;;;;;5028583;28;20025;-72
2022/11/17 12:51:09;;;;;;;19.13;3.30;;;;;;;;;;5029271;28;20029;-73
2022/11/17 12:53:51;;;;;;;25.73;3.22;;;;;;;;;;4987895;28;20103;-73
2022/11/17 12:56:46;;;;;;;24.42;3.88;;;;;;;;;;5029103;28;20057;-73
2022/11/17 12:59:41;;;;;;;22.45;3.67;;;;;;;;;;5028657;28;20036;-74
2022/11/17 13:02:36;;;;;;;21.92;3.30;;;;;;;;;;4957690;28;20047;-74
2022/11/17 13:05:14;;;;;;;24.23;3.70;;;;;;;;;;5029088;28;20090;-74
2022/11/17 13:07:40;;;;;;;19.65;3.60;;;;;;;;;;5028668;28;20029;-74
2022/11/17 13:10:21;;;;;;;17.00;3.17;;;;;;;;;;5028911;28;20041;-73
2022/11/17 13:12:47;;;;;;;22.98;3.55;;;;;;;;;;5028348;28;20029;-73
2022/11/17 13:15:22;;;;;;;22.95;3.75;;;;;;;;;;5028859;28;20105;-73
2022/11/17 13:17:48;;;;;;;23.83;4.00;;;;;;;;;;5028354;28;20032;-72
2022/11/17 13:20:27;;;;;;;20.75;3.30;;;;;;;;;;5028744;28;20033;-74
2022/11/17 13:23:05;;;;;;;26.23;3.50;;;;;;;;;;5028686;28;20167;-74
2022/11/17 13:25:31;;;;;;;24.45;3.38;;;;;;;;;;5028746;28;20083;-74
2022/11/17 13:27:57;;;;;;;27.08;3.90;;;;;;;;;;5028044;28;20029;-74
2022/11/17 13:30:28;;;;;;;16.38;2.92;;;;;;;;;;5028535;28;20087;-74
2022/11/17 13:32:54;;;;;;;;;;;;;;;;;;5029059;28;20036;-74
2022/11/17 13:35:34;;;;;;;23.73;3.47;;;;;;;;;;5028817;28;19948;-73
2022/11/17 13:38:16;;;;;;;23.40;3.57;;;;;;;;;;5028236;28;20022;-73
2022/11/17 13:40:43;;;;;;;18.85;3.40;;;;;;;;;;5028418;28;20064;-73
2022/11/17 13:43:18;;;;;;;21.98;3.72;;;;;;;;;;5027976;28;20033;-73
2022/11/17 13:45:45;;;;;;;23.67;3.78;;;;;;;;;;5028561;28;20022;-73
2022/11/17 13:48:33;;;;;;;24.02;3.40;;;;;;;;;;5028206;28;20489;-72
2022/11/17 13:51:23;;;;;;;19.63;3.25;;;;;;;;;;5029763;28;20026;-73
2022/11/17 13:53:56;;;;;;;24.58;3.60;;;;;;;;;;5032057;28;20112;-73
2022/11/17 13:56:29;;;;;;;20.17;3.60;;;;;;;;;;5032126;28;20025;-74
2022/11/17 13:58:56;;;;;;;20.45;3.53;;;;;;;;;;5031329;28;20061;-73
2022/11/17 14:01:24;;;;;;;17.33;3.20;;;;;;;;;;5032101;28;20087;-73
2022/11/17 14:03:50;;;;;;;26.55;3.80;;;;;;;;;;5014053;28;20030;-73
2022/11/17 14:06:16;;;;;;;19.23;3.45;;;;;;;;;;5031775;28;20413;-72
2022/11/17 14:08:59;;;;;;;17.73;3.00;;;;;;;;;;5031566;28;20030;-74
2022/11/17 14:11:25;;;;;;;20.65;2.85;;;;;;;;;;5013925;28;20024;-73
2022/11/17 14:13:57;;;;;;;19.80;3.15;;;;;;;;;;5030667;28;20054;-73
2022/11/17 14:16:39;;;;;;;24.77;3.83;;;;;;;;;;5031610;28;20103;-74
2022/11/17 14:19:14;;;;;;;18.83;3.17;;;;;;;;;;5031207;28;20077;-74
2022/11/17 14:22:07;;;;;;;21.75;3.63;;;;;;;;;;5031575;28;20126;-73
2022/11/17 14:24:33;;;;;;;21.98;3.15;;;;;;;;;;5031333;28;20682;-74
2022/11/17 14:27:00;;;;;;;17.40;3.05;;;;;;;;;;5013083;28;20029;-74
2022/11/17 14:29:26;;;;;;;20.58;3.38;;;;;;;;;;5031282;28;20041;-75
2022/11/17 14:31:53;;;;;;;21.45;3.05;;;;;;;;;;5031221;28;20137;-73
2022/11/17 14:34:18;;;;;;;20.65;3.80;;;;;;;;;;5031079;28;20172;-72
2022/11/17 14:36:54;;;;;;;23.70;3.63;;;;;;;;;;5031211;28;20108;-73
2022/11/17 14:39:20;;;;;;;27.05;3.60;;;;;;;;;;5031073;28;20607;-73
2022/11/17 14:41:47;;;;;;;18.40;2.95;;;;;;;;;;5031424;28;20052;-73
2022/11/17 14:44:13;;;;;;;24.50;3.30;;;;;;;;;;5030663;28;20393;-72
2022/11/17 14:46:39;;;;;;;20.92;3.65;;;;;;;;;;5013102;28;20021;-72
2022/11/17 14:49:05;;;;;;;25.23;3.75;;;;;;;;;;5030331;28;20544;-72
2022/11/17 14:51:31;;;;;;;18.55;3.55;;;;;;;;;;5030964;28;20517;-73
2022/11/17 14:53:56;;;;;;;21.30;3.70;;;;;;;;;;5030920;28;20072;-72
2022/11/17 14:56:23;;;;;;;21.52;3.85;;;;;;;;;;5031196;28;20041;-73
2022/11/17 14:58:54;;;;;;;21.83;3.58;;;;;;;;;;5030190;28;20112;-73
2022/11/17 15:01:24;;;;;;;;;;;;;;;;;;5031457;28;20039;-73
2022/11/17 15:03:51;;;;;;;18.90;3.22;;;;;;;;;;5029991;28;19917;-71
2022/11/17 15:06:17;;;;;;;21.00;3.35;;;;;;;;;;5030664;28;20128;-72
2022/11/17 15:08:43;;;;;;;22.38;3.30;;;;;;;;;;5030578;28;20438;-73
2022/11/17 15:11:14;;;;;;;21.48;3.83;;;;;;;;;;5030978;28;20079;-72
2022/11/17 15:13:39;;;;;;;18.92;3.50;;;;;;;;;;5030090;28;20024;-72
2022/11/17 15:16:05;;;;;;;21.17;3.58;;;;;;;;;;5030731;28;20096;-72
2022/11/17 15:18:31;;;;;;;20.25;4.20;;;;;;;;;;5030031;28;20053;-73
2022/11/17 15:21:05;;;;;;;20.73;4.28;;;;;;;;;;5030398;28;20056;-73
2022/11/17 15:23:31;;;;;;;23.90;4.10;;;;;;;;;;5030480;28;20026;-72
2022/11/17 15:25:57;;;;;;;21.55;3.90;;;;;;;;;;5030919;28;20025;-73
2022/11/17 15:28:23;;;;;;;21.23;3.60;;;;;;;;;;5030076;28;20030;-73
2022/11/17 15:30:49;;;;;;;17.40;3.50;;;;;;;;;;5030113;28;20041;-73
2022/11/17 15:33:15;;;;;;;19.27;3.70;;;;;;;;;;5030479;28;20433;-73
2022/11/17 15:35:41;;;;;;;19.95;3.20;;;;;;;;;;5029925;28;20021;-73
2022/11/17 15:38:06;;;;;;;17.33;3.25;;;;;;;;;;5029702;28;20072;-73
2022/11/17 15:40:31;;;;;;;18.48;3.75;;;;;;;;;;5029952;28;20021;-72
2022/11/17 15:42:57;;;;;;;17.40;3.75;;;;;;;;;;5029805;28;20022;-73
2022/11/17 15:45:23;;;;;;;27.17;4.25;;;;;;;;;;5029811;28;20051;-72
2022/11/17 15:47:48;;;;;;;24.05;3.40;;;;;;;;;;5030175;28;20086;-72
2022/11/17 15:50:14;;;;;;;19.10;3.40;;;;;;;;;;5029784;28;20036;-73
2022/11/17 15:52:40;;;;;;;18.02;3.15;;;;;;;;;;5030087;28;20044;-73
2022/11/17 15:55:05;;;;;;;20.27;3.42;;;;;;;;;;5029706;28;20021;-72
2022/11/17 15:57:31;;;;;;;19.63;3.38;;;;;;;;;;5028946;28;20021;-72
2022/11/17 15:59:56;;;;;;;18.20;2.90;;;;;;;;;;5029504;28;20166;-72
2022/11/17 16:02:22;;;;;;;18.13;3.40;;;;;;;;;;5029546;28;20024;-71
2022/11/17 16:04:47;;;;;;;19.27;3.13;;;;;;;;;;5029649;28;20443;-72
2022/11/17 16:07:13;;;;;;;21.30;3.40;;;;;;;;;;5029362;28;20069;-71
2022/11/17 16:09:38;;;;;;;18.20;3.17;;;;;;;;;;5029486;28;20420;-73
2022/11/17 16:12:04;;;;;;;19.20;3.10;;;;;;;;;;5029488;28;20028;-72
2022/11/17 16:14:29;;;;;;;20.08;2.63;;;;;;;;;;5029422;28;20045;-74
2022/11/17 16:16:55;;;;;;;23.02;3.35;;;;;;;;;;5029442;28;20029;-73
2022/11/17 16:19:20;;;;;;;18.33;3.03;;;;;;;;;;5029128;28;20057;-73
2022/11/17 16:21:45;;;;;;;15.18;2.95;;;;;;;;;;5029706;28;20059;-73
2022/11/17 16:24:11;;;;;;;19.52;2.80;;;;;;;;;;5029457;28;20053;-73
2022/11/17 16:26:36;;;;;;;19.60;3.13;;;;;;;;;;5029437;28;20071;-74
2022/11/17 16:29:05;;;;;;;16.88;3.10;;;;;;;;;;5028980;28;20025;-72
2022/11/17 16:31:32;;;;;;;13.02;2.20;;;;;;;;;;5029215;28;20044;-74
2022/11/17 16:34:06;;;;;;;16.67;2.72;;;;;;;;;;5029198;28;20048;-73
2022/11/17 16:36:36;;;;;;;15.95;2.60;;;;;;;;;;5029051;28;20022;-73
2022/11/17 16:39:04;;;;;;;14.93;2.65;;;;;;;;;;5011302;28;20492;-73
2022/11/17 16:41:32;;;;;;;17.42;2.60;;;;;;;;;;5029136;28;20026;-73
2022/11/17 16:43:58;;;;;;;20.20;3.03;;;;;;;;;;5011397;28;20075;-73
2022/11/17 16:46:29;;;;;;;19.05;3.25;;;;;;;;;;5028959;28;20108;-72
2022/11/17 16:48:55;;;;;;;18.55;3.10;;;;;;;;;;5029082;28;20040;-72
2022/11/17 16:51:21;;;;;;;17.42;3.45;;;;;;;;;;5028730;28;20025;-72